Aérodrome :
LOGIN :

S'inscrire | Disclaimer

   EN    FR    IT 

 










Légende :    VFR   VFR Marginal   IFR   IFR Intensif   IFR Très Intensif
Visi : 
Plafond : 
>= 8 km
>= 3000ft
5 à 8 km
1000 à 3000 ft
1500m à 5 km
500 à 1000 ft
800 à 1500m
200 à 500 ft
< 800m
< 200 ft
Symboles :   Orages  Brouillard  Fortes neiges  Fortes précipitations  Vent > 20 kt
SIGMETs :   Divers  Orages  Givrage  Turbulence  Onde Orograph.  Cendres Volcan.







- Altitude de l'aérodrome : 526 ft
- Code IATA : LTN
- Voir les cartes d'approche


EGGW - London Luton

DERNIER METAR :
  • 221650Z AUTO 10010KT 9999 NCD 20/06 Q1002

METARs EXPIRÉS :
  • 221620Z AUTO 11010KT 9999 NCD 21/06 Q1002
  • 221550Z AUTO 12013KT 9999 NCD 21/05 Q1002
  • 221520Z AUTO 11011KT 080V150 9999 NCD 22/05 Q1003
  • 221450Z AUTO 11012KT 070V140 9999 NCD 22/05 Q1003
  • 221420Z AUTO 09011KT 060V130 9999 NCD 23/06 Q1003
  • 221350Z AUTO 11011KT 080V160 9999 NCD 23/05 Q1004

TAF TAF EGGW
Valide du 22 à 12h jusqu'au 23 à 12h UTC


221056Z 2212/2312 11010KT CAVOK
BECMG 2221/2224 VRB03KT
PROB30
TEMPO 2303/2308 8000
BECMG 2306/2309 08010KT
ATIS : +44 1582 395 204
Pas de NOTAMs connus pour ce terrain.



MET'MAP, la Météo Aéronautique d'un coup d'oeil ! - Copyright ORBIFLY Décembre 2007 - Disclaimer

ORBIFLY MET'MAP TEAM :

Programmation & Développement : Alexandra Zaïnal
Conception & Développement : Baudouin d'Aumeries
Co-Programmation & Développement : Marc-Olivier Méhu
Soutien technique & logistique : Manuel Goepfert

Contact : metmap@orbifly.com




SOURCES & CREDITS :

   NOAA